Time;durP1;ratioP1;P1;durP2;ratioP2;P2;SDS_P1;SDS_P2;PMS_P1;PMS_P2;Temp;Humidity;BMP_temperature;BMP_pressure;BME280_temperature;BME280_humidity;BME280_pressure;Samples;Min_cycle;Max_cycle;Signal;HPM_P1;HPM_P2
2021/04/18 00:01:40;;;;;;;8.27;3.55;;;5.70;66.00;4.50;102279.00;;;;5019360;28;20123;-78
2021/04/18 00:04:06;;;;;;;8.05;3.80;;;5.70;66.40;4.50;102273.00;;;;5017551;28;20048;-77
2021/04/18 00:06:39;;;;;;;7.87;3.07;;;5.70;66.60;4.40;102267.00;;;;5018913;28;20076;-76
2021/04/18 00:09:11;;;;;;;7.18;3.15;;;5.70;66.60;4.40;102268.00;;;;5001708;28;20299;-77
2021/04/18 00:11:46;;;;;;;7.68;3.65;;;5.70;66.50;4.40;102275.00;;;;5001199;28;20037;-78
2021/04/18 00:14:12;;;;;;;12.30;3.90;;;5.60;66.90;4.40;102268.00;;;;5025527;28;20120;-77
2021/04/18 00:16:39;;;;;;;8.65;3.38;;;5.60;67.10;4.40;102262.00;;;;5019906;28;20045;-77
2021/04/18 00:19:06;;;;;;;6.60;3.30;;;5.60;66.00;4.30;102265.00;;;;5020089;28;20048;-77
2021/04/18 00:21:32;;;;;;;10.85;3.67;;;5.60;66.80;4.30;102268.00;;;;5016820;28;20324;-77
2021/04/18 00:23:58;;;;;;;10.95;3.63;;;5.60;67.00;4.30;102265.00;;;;5018491;28;20651;-77
2021/04/18 00:26:25;;;;;;;9.55;3.20;;;5.50;67.30;4.20;102279.00;;;;5023645;28;20050;-76
2021/04/18 00:28:51;;;;;;;7.30;3.63;;;5.50;67.20;4.10;102271.00;;;;4999198;28;20527;-78
2021/04/18 00:31:17;;;;;;;9.88;3.22;;;5.40;67.70;4.00;102279.00;;;;5022194;28;20054;-78
2021/04/18 00:33:43;;;;;;;8.65;3.42;;;5.30;67.00;4.00;102261.00;;;;5020637;28;20049;-76
2021/04/18 00:36:09;;;;;;;6.38;3.33;;;5.20;66.30;3.90;102255.00;;;;5024810;28;20060;-77
2021/04/18 00:38:36;;;;;;;12.50;3.70;;;5.20;67.50;3.80;102266.00;;;;5018161;28;20041;-78
2021/04/18 00:41:02;;;;;;;8.43;3.65;;;5.20;68.00;3.80;102264.00;;;;5008564;28;20046;-77
2021/04/18 00:43:28;;;;;;;9.68;3.97;;;5.10;68.20;3.70;102263.00;;;;5016796;28;20111;-77
2021/04/18 00:45:54;;;;;;;9.02;3.10;;;6.30;69.20;3.70;102269.00;;;;5020670;28;20042;-77
2021/04/18 00:48:19;;;;;;;10.60;3.72;;;5.00;68.50;3.70;102257.00;;;;5018382;28;20124;-77
2021/04/18 00:50:46;;;;;;;8.50;3.50;;;5.00;68.40;3.70;102262.00;;;;5013697;28;20053;-77
2021/04/18 00:53:12;;;;;;;6.93;3.70;;;5.00;68.40;3.70;102260.00;;;;4994569;28;20116;-78
2021/04/18 00:55:43;;;;;;;9.73;3.67;;;5.00;68.50;3.60;102260.00;;;;5020719;28;20527;-78
2021/04/18 00:58:11;;;;;;;10.25;3.67;;;5.00;68.40;3.60;102253.00;;;;5015465;28;20492;-77
2021/04/18 01:00:39;;;;;;;7.78;3.55;;;4.90;69.30;3.60;102248.00;;;;5015697;28;20044;-78
2021/04/18 01:03:08;;;;;;;8.40;3.40;;;4.90;69.10;3.60;102258.00;;;;5019588;28;20045;-77
2021/04/18 01:05:36;;;;;;;12.02;4.25;;;4.90;68.90;3.60;102248.00;;;;5015702;28;20046;-77
2021/04/18 01:08:09;;;;;;;10.93;3.90;;;4.90;69.10;3.60;102259.00;;;;4991352;28;20050;-77
2021/04/18 01:10:36;;;;;;;10.07;4.55;;;4.90;68.40;3.50;102264.00;;;;5017866;28;20037;-78
2021/04/18 01:13:02;;;;;;;11.60;3.83;;;4.80;68.90;3.40;102266.00;;;;5016659;28;20725;-78
2021/04/18 01:15:28;;;;;;;9.25;3.95;;;4.80;69.70;3.40;102248.00;;;;5004784;28;20080;-76
2021/04/18 01:17:54;;;;;;;10.38;4.07;;;4.70;70.40;3.30;102241.00;;;;5019274;28;20069;-77
2021/04/18 01:20:23;;;;;;;10.30;3.70;;;4.40;69.80;3.30;102251.00;;;;5017794;28;20042;-77
2021/04/18 01:23:00;;;;;;;11.88;4.03;;;4.60;69.70;3.20;102252.00;;;;5004727;28;20069;-78
2021/04/18 01:25:44;;;;;;;11.07;4.40;;;3.90;69.60;3.20;102250.00;;;;5015308;28;20050;-77
2021/04/18 01:28:18;;;;;;;10.07;4.35;;;4.50;69.90;3.20;102249.00;;;;5008263;28;20082;-77
2021/04/18 01:30:44;;;;;;;14.77;4.40;;;4.50;70.00;3.10;102244.00;;;;4997998;28;20126;-78
2021/04/18 01:33:10;;;;;;;12.35;4.25;;;4.50;70.50;3.10;102229.00;;;;5015243;28;20042;-78
2021/04/18 01:35:36;;;;;;;11.95;4.55;;;4.40;70.60;3.10;102223.00;;;;4999042;28;20068;-78
2021/04/18 01:38:05;;;;;;;10.60;4.30;;;4.40;70.50;3.00;102233.00;;;;5018236;28;20063;-78
2021/04/18 01:40:31;;;;;;;12.10;4.53;;;4.50;70.60;3.00;102225.00;;;;5015975;28;20095;-78
2021/04/18 01:42:57;;;;;;;14.20;4.70;;;4.30;70.50;3.00;102236.00;;;;5020033;28;20099;-77
2021/04/18 01:45:24;;;;;;;10.57;4.53;;;4.30;70.50;3.00;102227.00;;;;5020561;28;20063;-77
2021/04/18 01:47:53;;;;;;;9.65;3.97;;;4.30;70.80;3.00;102220.00;;;;5019671;28;20061;-78
2021/04/18 01:50:19;;;;;;;13.15;4.57;;;4.30;71.30;2.90;102217.00;;;;5023505;28;20071;-78
2021/04/18 01:52:48;;;;;;;11.10;4.50;;;4.30;71.30;2.90;102221.00;;;;5006288;28;20037;-77
2021/04/18 01:55:17;;;;;;;14.05;5.15;;;4.20;71.50;2.90;102229.00;;;;4992599;28;20040;-78
2021/04/18 01:57:44;;;;;;;11.13;6.22;;;4.10;71.90;2.80;102215.00;;;;5007096;28;20045;-78
2021/04/18 02:00:19;;;;;;;13.80;6.70;;;4.10;71.10;2.80;102217.00;;;;5008975;28;20041;-78
2021/04/18 02:02:58;;;;;;;24.00;11.68;;;4.20;72.00;2.80;102213.00;;;;5030920;28;20056;-78
2021/04/18 02:05:35;;;;;;;18.83;8.45;;;4.10;72.60;2.80;102205.00;;;;5026414;28;20139;-79
2021/04/18 02:08:03;;;;;;;16.92;7.97;;;4.20;71.20;2.80;102206.00;;;;5019198;28;20111;-78
2021/04/18 02:10:30;;;;;;;15.43;6.53;;;4.10;71.40;2.80;102206.00;;;;5022721;28;20048;-77
2021/04/18 02:12:56;;;;;;;13.77;6.68;;;4.20;72.20;2.90;102207.00;;;;5020979;28;20041;-77
2021/04/18 02:15:33;;;;;;;14.27;5.85;;;4.20;71.40;2.80;102212.00;;;;5006664;28;20874;-78
2021/04/18 02:17:59;;;;;;;13.90;6.80;;;4.20;72.60;2.90;102212.00;;;;4985316;28;20037;-78
2021/04/18 02:20:25;;;;;;;11.77;5.95;;;4.40;73.40;2.90;102215.00;;;;5016365;28;20038;-78
2021/04/18 02:22:52;;;;;;;14.45;6.30;;;4.20;71.60;2.80;102206.00;;;;5019166;28;20038;-78
2021/04/18 02:25:19;;;;;;;13.85;6.78;;;4.10;72.60;2.80;102209.00;;;;4983863;28;20045;-78
2021/04/18 02:27:46;;;;;;;14.80;7.00;;;4.00;72.80;2.70;102208.00;;;;5023047;28;20045;-78
2021/04/18 02:30:35;;;;;;;13.07;6.65;;;4.10;73.20;2.70;102199.00;;;;5017553;28;20802;-78
2021/04/18 02:33:01;;;;;;;18.75;7.60;;;4.00;72.30;2.70;102201.00;;;;5027846;28;20423;-79
2021/04/18 02:35:28;;;;;;;11.30;6.28;;;4.00;73.10;2.70;102203.00;;;;5028873;28;20096;-78
2021/04/18 02:37:54;;;;;;;13.98;7.07;;;4.00;72.80;2.70;102201.00;;;;5019495;28;20856;-78
2021/04/18 02:40:21;;;;;;;14.52;7.00;;;4.00;73.10;2.60;102203.00;;;;5016555;28;20087;-78
2021/04/18 02:42:48;;;;;;;14.30;7.20;;;4.00;72.60;2.60;102205.00;;;;5008160;28;20091;-78
2021/04/18 02:45:15;;;;;;;;;;;4.00;73.10;2.50;102206.00;;;;5016331;28;20761;-79
2021/04/18 02:47:47;;;;;;;15.52;6.93;;;3.90;72.10;2.60;102210.00;;;;5003514;28;20492;-79
2021/04/18 02:50:15;;;;;;;16.15;6.82;;;3.90;73.10;2.60;102213.00;;;;4998326;28;20044;-79
2021/04/18 02:52:41;;;;;;;17.35;7.82;;;3.90;72.70;2.50;102200.00;;;;4998726;28;20057;-79
2021/04/18 02:55:08;;;;;;;17.52;7.28;;;3.50;72.80;2.50;102205.00;;;;5015026;28;20843;-79
2021/04/18 02:57:44;;;;;;;16.02;7.13;;;3.90;74.60;2.50;102201.00;;;;5018597;28;20060;-78
2021/04/18 03:00:11;;;;;;;15.13;7.30;;;3.80;74.00;2.50;102194.00;;;;5020399;28;20660;-79
2021/04/18 03:02:38;;;;;;;17.63;7.57;;;3.80;74.00;2.40;102191.00;;;;5023392;28;20041;-79
2021/04/18 03:05:05;;;;;;;18.05;7.70;;;3.80;73.70;2.40;102209.00;;;;5020475;28;20059;-79
2021/04/18 03:07:31;;;;;;;14.90;7.15;;;3.80;73.60;2.40;102207.00;;;;5005356;28;20044;-77
2021/04/18 03:09:58;;;;;;;13.38;6.60;;;3.80;73.10;2.40;102190.00;;;;5021857;28;20136;-79
2021/04/18 03:12:24;;;;;;;17.60;7.55;;;3.70;74.00;2.30;102199.00;;;;5023894;28;20120;-78
2021/04/18 03:14:55;;;;;;;15.25;7.30;;;3.60;73.70;2.30;102196.00;;;;5002241;28;20089;-78
2021/04/18 03:17:24;;;;;;;16.55;7.88;;;3.70;74.60;2.30;102194.00;;;;5004942;28;20134;-79
2021/04/18 03:19:58;;;;;;;17.92;8.18;;;3.70;73.70;2.30;102191.00;;;;5010262;28;20041;-79
2021/04/18 03:22:24;;;;;;;15.35;8.07;;;3.70;75.10;2.30;102200.00;;;;5017847;28;20137;-80
2021/04/18 03:24:51;;;;;;;15.05;7.97;;;3.70;75.30;2.30;102197.00;;;;5017388;28;20104;-79
2021/04/18 03:27:18;;;;;;;14.63;7.05;;;3.50;75.40;2.30;102192.00;;;;5023351;28;20216;-79
2021/04/18 03:29:49;;;;;;;16.23;6.53;;;3.60;74.40;2.30;102194.00;;;;5018749;28;20053;-80
2021/04/18 03:32:15;;;;;;;18.50;8.27;;;3.70;75.10;2.30;102192.00;;;;5021131;28;20042;-79
2021/04/18 03:34:43;;;;;;;15.45;7.03;;;3.60;74.80;2.30;102194.00;;;;5006697;28;20133;-80
2021/04/18 03:37:09;;;;;;;18.45;7.63;;;3.60;74.40;2.30;102179.00;;;;4992377;28;20123;-79
2021/04/18 03:39:37;;;;;;;21.15;7.60;;;3.60;75.10;2.30;102187.00;;;;5016683;28;20508;-79
2021/04/18 03:42:05;;;;;;;20.63;7.95;;;3.60;75.10;2.30;102181.00;;;;5021747;28;20041;-78
2021/04/18 03:44:32;;;;;;;16.75;6.72;;;3.70;76.30;2.40;102179.00;;;;5021833;28;20048;-78
2021/04/18 03:46:58;;;;;;;15.25;7.05;;;3.70;76.00;2.40;102179.00;;;;5021668;28;20030;-78
2021/04/18 03:49:38;;;;;;;18.42;8.02;;;3.70;75.50;2.40;102177.00;;;;4989903;28;20048;-78
2021/04/18 03:52:14;;;;;;;22.15;8.07;;;3.70;75.90;2.30;102177.00;;;;5000857;28;20057;-80
2021/04/18 03:54:41;;;;;;;15.52;6.95;;;3.60;76.40;2.30;102174.00;;;;5021827;28;20052;-80
2021/04/18 03:57:08;;;;;;;13.57;7.10;;;3.70;76.10;2.30;102183.00;;;;5017811;28;20041;-79
2021/04/18 03:59:34;;;;;;;17.52;6.55;;;3.60;74.80;2.30;102185.00;;;;5001779;28;20053;-78
2021/04/18 04:02:00;;;;;;;15.02;6.85;;;3.60;75.50;2.30;102172.00;;;;5022675;28;20149;-79
2021/04/18 04:04:27;;;;;;;13.00;7.25;;;3.60;75.10;2.20;102173.00;;;;5005386;28;20049;-79
2021/04/18 04:06:54;;;;;;;17.77;7.53;;;3.60;75.90;2.20;102174.00;;;;5022257;28;20484;-78
2021/04/18 04:09:22;;;;;;;17.30;7.38;;;3.60;76.00;2.20;102179.00;;;;5005554;28;20145;-79
2021/04/18 04:11:48;;;;;;;17.52;7.07;;;3.50;77.10;2.20;102177.00;;;;5020898;28;20512;-78
2021/04/18 04:14:21;;;;;;;25.10;13.60;;;3.50;77.20;2.20;102181.00;;;;5018665;28;20635;-78
2021/04/18 04:16:50;;;;;;;17.00;9.40;;;3.50;76.60;2.10;102189.00;;;;5019009;28;20034;-79
2021/04/18 04:19:20;;;;;;;16.85;7.72;;;3.50;76.30;2.10;102190.00;;;;5004474;28;20128;-79
2021/04/18 04:22:05;;;;;;;18.95;7.35;;;3.50;76.80;2.10;102193.00;;;;5021029;28;20111;-78
2021/04/18 04:24:52;;;;;;;16.42;7.25;;;3.50;76.50;2.10;102194.00;;;;5024469;28;20045;-78
2021/04/18 04:27:19;;;;;;;15.75;6.25;;;3.20;76.40;2.20;102189.00;;;;5017115;28;20053;-78
2021/04/18 04:29:47;;;;;;;17.90;7.32;;;3.50;76.20;2.10;102189.00;;;;5018231;28;20187;-79
2021/04/18 04:32:13;;;;;;;;;;;3.50;76.10;2.10;102191.00;;;;5005825;28;20072;-79
2021/04/18 04:34:40;;;;;;;15.82;7.10;;;3.50;77.90;2.10;102190.00;;;;5019764;28;20190;-79
2021/04/18 04:37:06;;;;;;;15.10;7.32;;;3.50;75.00;2.10;102183.00;;;;5023237;28;20531;-80
2021/04/18 04:39:32;;;;;;;18.17;7.75;;;3.40;76.10;2.10;102200.00;;;;4993599;28;20042;-79
2021/04/18 04:41:59;;;;;;;16.13;7.45;;;3.40;76.50;2.00;102191.00;;;;5016106;28;20493;-78
2021/04/18 04:44:25;;;;;;;17.73;7.75;;;3.40;75.70;2.00;102194.00;;;;5014720;28;20103;-79
2021/04/18 04:46:51;;;;;;;17.95;7.18;;;3.40;76.70;2.00;102194.00;;;;5021080;28;20049;-78
2021/04/18 04:49:17;;;;;;;14.70;6.85;;;3.40;77.30;2.00;102201.00;;;;5016512;28;20997;-78
2021/04/18 04:51:43;;;;;;;21.70;7.40;;;3.40;76.80;2.00;102194.00;;;;5014132;28;20064;-77
2021/04/18 04:54:09;;;;;;;24.75;7.82;;;3.30;76.90;2.00;102195.00;;;;5018302;28;20510;-79
2021/04/18 04:56:35;;;;;;;14.75;7.03;;;3.30;77.10;2.00;102199.00;;;;5020753;28;20068;-79
2021/04/18 04:59:01;;;;;;;14.82;7.22;;;3.40;76.90;2.00;102203.00;;;;5002075;28;20052;-78
2021/04/18 05:01:26;;;;;;;15.02;7.00;;;3.40;76.60;2.00;102203.00;;;;5018697;28;20033;-78
2021/04/18 05:03:52;;;;;;;15.95;6.70;;;3.30;76.70;2.00;102205.00;;;;5014506;28;20648;-79
2021/04/18 05:06:18;;;;;;;14.95;6.35;;;3.40;76.50;2.10;102210.00;;;;5024386;28;20084;-72
2021/04/18 05:08:44;;;;;;;19.52;11.93;;;3.40;77.00;2.10;102206.00;;;;5015703;28;20677;-72
2021/04/18 05:11:10;;;;;;;17.00;11.20;;;3.40;76.40;2.20;102211.00;;;;5021383;28;20100;-72
2021/04/18 05:13:36;;;;;;;23.08;10.98;;;3.50;77.00;2.20;102203.00;;;;5036489;28;20600;-73
2021/04/18 05:16:03;;;;;;;18.20;10.90;;;3.60;77.00;2.20;102206.00;;;;5016470;28;20041;-73
2021/04/18 05:18:28;;;;;;;21.35;9.73;;;3.50;76.40;2.30;102209.00;;;;5020781;28;20140;-73
2021/04/18 05:20:54;;;;;;;23.15;8.77;;;1.50;75.50;2.30;102222.00;;;;5017779;28;20124;-73
2021/04/18 05:23:20;;;;;;;21.08;9.32;;;3.60;77.00;2.30;102217.00;;;;5031797;28;20133;-73
2021/04/18 05:25:46;;;;;;;20.55;9.52;;;3.60;77.50;2.30;102214.00;;;;5012429;28;20142;-73
2021/04/18 05:28:12;;;;;;;17.52;9.32;;;3.90;77.60;2.30;102227.00;;;;5027113;28;20620;-73
2021/04/18 05:30:38;;;;;;;21.17;9.60;;;3.60;77.00;2.30;102223.00;;;;5002486;28;20041;-74
2021/04/18 05:33:04;;;;;;;24.13;9.70;;;3.60;77.50;2.30;102220.00;;;;5019646;28;20092;-73
2021/04/18 05:35:30;;;;;;;20.67;9.02;;;3.70;77.90;2.40;102212.00;;;;4999640;28;20045;-73
2021/04/18 05:37:56;;;;;;;27.45;10.05;;;3.70;76.80;2.40;102219.00;;;;5019603;28;20057;-74
2021/04/18 05:40:22;;;;;;;27.55;10.43;;;3.70;76.50;2.50;102216.00;;;;5000732;28;20129;-72
2021/04/18 05:42:48;;;;;;;24.95;10.18;;;3.70;77.90;2.50;102215.00;;;;5015277;28;20571;-73
2021/04/18 05:45:14;;;;;;;23.52;10.15;;;3.80;78.40;2.60;102216.00;;;;5019142;28;20043;-73
2021/04/18 05:47:39;;;;;;;18.80;10.00;;;3.70;78.50;2.70;102205.00;;;;5020711;28;20615;-73
2021/04/18 05:50:06;;;;;;;22.10;9.85;;;3.90;78.50;2.80;102199.00;;;;5019049;28;20045;-73
2021/04/18 05:52:32;;;;;;;26.75;10.40;;;4.00;78.90;2.80;102202.00;;;;5015759;28;20045;-73
2021/04/18 05:54:58;;;;;;;19.42;10.30;;;4.00;78.90;3.00;102203.00;;;;5019526;28;20038;-72
2021/04/18 05:57:24;;;;;;;22.80;11.05;;;4.10;79.10;3.10;102206.00;;;;5020240;28;20045;-73
2021/04/18 05:59:50;;;;;;;21.17;10.25;;;4.20;78.70;3.20;102206.00;;;;5018246;28;20045;-73
2021/04/18 06:02:16;;;;;;;25.92;12.50;;;4.30;78.60;3.30;102198.00;;;;5019732;28;20731;-74
2021/04/18 06:04:42;;;;;;;26.05;13.23;;;4.40;79.40;3.40;102196.00;;;;5001321;28;20128;-73
2021/04/18 06:07:08;;;;;;;20.20;11.48;;;4.50;79.30;3.50;102211.00;;;;5015630;28;20046;-74
2021/04/18 06:09:34;;;;;;;22.58;12.35;;;4.60;81.00;3.60;102207.00;;;;5002425;28;20044;-74
2021/04/18 06:12:00;;;;;;;25.42;14.35;;;4.70;79.70;3.70;102203.00;;;;5033685;28;20145;-73
2021/04/18 06:14:25;;;;;;;32.15;19.92;;;4.80;78.00;3.80;102206.00;;;;5016240;28;20048;-74
2021/04/18 06:16:51;;;;;;;42.88;23.33;;;4.90;79.10;4.00;102202.00;;;;5021003;28;20053;-72
2021/04/18 06:19:18;;;;;;;42.42;27.42;;;5.10;79.30;4.20;102208.00;;;;5015044;28;20041;-74
2021/04/18 06:21:44;;;;;;;41.22;21.10;;;5.10;79.10;4.20;102215.00;;;;5012781;28;20048;-75
2021/04/18 06:24:11;;;;;;;46.22;29.08;;;5.20;78.90;4.30;102226.00;;;;5014466;28;20056;-73
2021/04/18 06:26:37;;;;;;;25.88;15.73;;;5.30;78.40;4.40;102221.00;;;;5021783;28;20037;-74
2021/04/18 06:29:02;;;;;;;31.85;18.65;;;5.10;77.90;4.50;102222.00;;;;5034013;28;20091;-74
2021/04/18 06:31:28;;;;;;;29.30;18.25;;;5.60;78.30;4.60;102216.00;;;;5020955;28;20124;-74
2021/04/18 06:33:54;;;;;;;34.17;22.45;;;5.60;77.90;4.70;102216.00;;;;5019928;28;20459;-74
2021/04/18 06:36:20;;;;;;;32.25;19.77;;;5.70;77.00;4.80;102227.00;;;;5014305;28;20040;-73
2021/04/18 06:38:46;;;;;;;27.35;13.73;;;5.80;78.10;5.00;102222.00;;;;5014190;28;20064;-74
2021/04/18 06:41:22;;;;;;;29.80;11.45;;;6.00;76.90;5.10;102213.00;;;;5017453;28;20057;-74
2021/04/18 06:43:50;;;;;;;25.13;11.88;;;6.10;78.10;5.30;102227.00;;;;5015382;28;20056;-74
2021/04/18 06:46:22;;;;;;;21.58;12.82;;;6.20;78.70;5.40;102230.00;;;;5017090;28;20052;-73
2021/04/18 06:48:49;;;;;;;28.77;14.52;;;6.40;77.30;5.60;102235.00;;;;5017946;28;20567;-72
2021/04/18 06:51:17;;;;;;;29.27;14.50;;;6.50;77.00;5.60;102228.00;;;;5013958;28;20496;-73
2021/04/18 06:53:43;;;;;;;32.15;17.50;;;6.60;76.90;5.80;102230.00;;;;5023913;28;20049;-73
2021/04/18 06:56:09;;;;;;;25.42;15.38;;;6.70;77.30;5.90;102238.00;;;;5028541;28;20072;-72
2021/04/18 06:58:35;;;;;;;25.25;14.00;;;6.80;77.40;6.10;102223.00;;;;5024047;28;20539;-73
2021/04/18 07:01:02;;;;;;;25.15;13.73;;;6.90;77.20;6.30;102240.00;;;;5033200;28;20037;-72
2021/04/18 07:03:28;;;;;;;23.00;13.63;;;7.10;77.60;6.50;102233.00;;;;5020495;28;20088;-72
2021/04/18 07:05:57;;;;;;;23.00;11.90;;;7.40;76.50;6.60;102233.00;;;;5016990;28;21177;-73
2021/04/18 07:08:33;;;;;;;23.83;11.48;;;7.60;75.70;6.70;102222.00;;;;5017541;28;20067;-73
2021/04/18 07:11:17;;;;;;;20.00;10.77;;;7.50;76.60;6.80;102226.00;;;;5014458;28;20045;-72
2021/04/18 07:13:45;;;;;;;19.90;9.15;;;7.70;76.10;6.90;102216.00;;;;5010499;28;20138;-73
2021/04/18 07:16:28;;;;;;;18.48;8.75;;;7.80;75.00;7.10;102228.00;;;;5020034;28;20451;-73
2021/04/18 07:18:55;;;;;;;21.67;9.23;;;8.00;76.10;7.30;102212.00;;;;5016801;28;20076;-72
2021/04/18 07:21:23;;;;;;;22.95;9.65;;;8.00;76.50;7.40;102217.00;;;;5018509;28;20052;-72
2021/04/18 07:23:49;;;;;;;18.83;9.25;;;8.20;76.30;7.50;102208.00;;;;5008576;28;20060;-72
2021/04/18 07:26:26;;;;;;;23.30;9.85;;;8.30;75.60;7.40;102201.00;;;;5016427;28;20033;-71
2021/04/18 07:29:11;;;;;;;15.13;7.85;;;8.30;75.60;7.30;102200.00;;;;5016283;28;20864;-73
2021/04/18 07:31:37;;;;;;;14.82;8.80;;;8.30;75.20;7.20;102217.00;;;;5017690;28;20052;-73
2021/04/18 07:34:17;;;;;;;18.23;9.50;;;8.20;75.70;7.20;102216.00;;;;5013739;28;20166;-73
2021/04/18 07:36:47;;;;;;;20.48;9.55;;;8.20;75.80;7.10;102213.00;;;;5013233;28;20048;-73
2021/04/18 07:39:15;;;;;;;19.17;10.05;;;8.10;76.30;7.20;102217.00;;;;4990369;28;20030;-73
2021/04/18 07:41:47;;;;;;;19.13;9.95;;;8.10;76.70;7.30;102208.00;;;;5030386;28;20559;-73
2021/04/18 07:44:19;;;;;;;17.75;8.95;;;8.20;76.80;7.40;102224.00;;;;5017183;28;20538;-72
2021/04/18 07:46:55;;;;;;;19.63;9.52;;;8.30;76.80;7.60;102221.00;;;;5014705;28;20061;-72
2021/04/18 07:49:21;;;;;;;17.08;9.10;;;8.40;76.70;7.70;102221.00;;;;5020861;28;20053;-73
2021/04/18 07:51:49;;;;;;;21.65;9.80;;;;;7.70;102220.00;;;;5020146;28;20057;-72
2021/04/18 07:54:17;;;;;;;16.45;9.15;;;8.60;75.40;7.90;102222.00;;;;5018722;28;20111;-73
2021/04/18 07:56:46;;;;;;;22.30;9.65;;;8.70;76.30;8.10;102237.00;;;;5016064;28;20080;-73
2021/04/18 07:59:16;;;;;;;19.00;9.32;;;8.80;76.50;8.20;102233.00;;;;5014744;28;20100;-72
2021/04/18 08:01:42;;;;;;;19.17;8.73;;;9.00;75.00;8.40;102227.00;;;;5001978;28;20041;-71
2021/04/18 08:04:10;;;;;;;16.75;9.35;;;9.10;76.20;8.60;102222.00;;;;5001992;28;20048;-72
2021/04/18 08:06:42;;;;;;;19.02;9.40;;;9.40;76.30;8.80;102223.00;;;;4992426;28;20503;-72
2021/04/18 08:09:19;;;;;;;20.83;10.13;;;9.50;75.80;9.00;102224.00;;;;5019324;28;20120;-72
2021/04/18 08:12:08;;;;;;;17.30;9.68;;;9.70;74.20;9.10;102217.00;;;;5014529;28;20123;-72
2021/04/18 08:14:37;;;;;;;19.00;9.40;;;10.00;73.90;9.40;102221.00;;;;5020946;28;20049;-72
2021/04/18 08:17:11;;;;;;;14.05;7.65;;;10.00;74.90;9.40;102214.00;;;;5019254;28;20393;-72
2021/04/18 08:19:40;;;;;;;18.88;7.88;;;10.10;73.40;9.30;102228.00;;;;5012164;28;20045;-72
2021/04/18 08:22:06;;;;;;;16.52;7.90;;;10.10;71.10;9.30;102226.00;;;;4998872;28;20045;-72
2021/04/18 08:24:35;;;;;;;14.68;7.93;;;10.10;71.90;9.30;102231.00;;;;4998713;28;20048;-72
2021/04/18 08:27:11;;;;;;;13.55;6.75;;;10.10;72.10;9.30;102229.00;;;;5019831;28;20042;-72
2021/04/18 08:30:10;;;;;;;15.88;7.40;;;10.10;71.70;9.30;102234.00;;;;5013024;28;20147;-72
2021/04/18 08:32:43;;;;;;;;;;;10.10;71.70;9.20;102234.00;;;;4985456;28;20080;-71
2021/04/18 08:35:19;;;;;;;11.50;6.57;;;10.10;72.20;9.30;102227.00;;;;5006182;28;19936;-71
2021/04/18 08:38:15;;;;;;;13.40;7.63;;;10.10;71.90;9.40;102236.00;;;;5018575;28;20120;-72
2021/04/18 08:40:41;;;;;;;14.02;7.47;;;11.70;71.50;9.60;102219.00;;;;5019789;28;20440;-72
2021/04/18 08:43:25;;;;;;;10.90;6.43;;;10.30;71.70;9.70;102234.00;;;;4988569;28;20038;-71
2021/04/18 08:45:55;;;;;;;13.98;7.30;;;10.50;70.80;9.90;102221.00;;;;5020140;28;20304;-71
2021/04/18 08:48:21;;;;;;;13.13;6.53;;;10.50;69.90;10.10;102216.00;;;;5012053;28;20098;-70
2021/04/18 08:51:05;;;;;;;14.45;7.18;;;10.90;70.30;10.30;102221.00;;;;5013241;28;20083;-71
2021/04/18 08:53:58;;;;;;;11.25;7.32;;;11.00;69.40;10.40;102219.00;;;;5012814;28;20052;-72
2021/04/18 08:56:53;;;;;;;11.38;6.63;;;11.10;69.90;10.40;102216.00;;;;5015266;28;20030;-71
2021/04/18 08:59:20;;;;;;;11.73;6.50;;;11.10;69.30;10.50;102225.00;;;;5017699;28;20120;-72
2021/04/18 09:01:59;;;;;;;;;;;11.20;69.40;10.50;102214.00;;;;5016979;28;20040;-71
2021/04/18 09:04:27;;;;;;;10.40;5.63;;;11.30;68.20;10.50;102223.00;;;;5019177;28;19925;-73
2021/04/18 09:06:54;;;;;;;12.35;6.45;;;11.30;66.00;10.50;102223.00;;;;5013465;28;20717;-71
2021/04/18 09:09:20;;;;;;;11.63;6.22;;;11.30;68.60;10.70;102214.00;;;;5019778;28;20420;-71
2021/04/18 09:11:47;;;;;;;13.32;6.25;;;11.40;68.30;11.00;102218.00;;;;5017551;28;20048;-71
2021/04/18 09:14:30;;;;;;;;;;;11.60;68.00;11.20;102220.00;;;;4996698;28;20123;-71
2021/04/18 09:17:24;;;;;;;12.65;4.93;;;11.80;66.30;11.40;102218.00;;;;5030163;28;20365;-71
2021/04/18 09:19:56;;;;;;;6.40;4.35;;;12.10;64.30;11.50;102228.00;;;;5022024;28;20040;-71
2021/04/18 09:22:31;;;;;;;9.48;4.45;;;12.10;65.50;11.40;102210.00;;;;5016435;28;20195;-71
2021/04/18 09:25:13;;;;;;;9.30;4.30;;;12.20;64.80;11.70;102223.00;;;;5013045;28;20807;-71
2021/04/18 09:27:50;;;;;;;8.85;4.15;;;12.40;64.20;11.90;102223.00;;;;5013709;28;20048;-71
2021/04/18 09:30:26;;;;;;;11.75;4.72;;;12.50;63.90;12.10;102222.00;;;;5014131;28;20133;-71
2021/04/18 09:32:55;;;;;;;10.98;4.30;;;12.80;61.20;12.30;102227.00;;;;5019897;28;20059;-71
2021/04/18 09:35:26;;;;;;;9.48;4.78;;;13.60;64.10;12.40;102212.00;;;;5016475;28;20049;-72
2021/04/18 09:38:04;;;;;;;10.57;4.72;;;13.00;61.20;12.40;102220.00;;;;5014940;28;20041;-72
2021/04/18 09:40:35;;;;;;;6.70;4.70;;;13.00;62.10;12.50;102222.00;;;;5013051;28;20037;-71
2021/04/18 09:43:04;;;;;;;7.60;4.15;;;13.10;62.60;12.70;102217.00;;;;5019495;28;20532;-72
2021/04/18 09:45:32;;;;;;;8.63;5.32;;;13.20;62.10;12.90;102217.00;;;;5016525;28;20072;-71
2021/04/18 09:48:17;;;;;;;11.50;5.50;;;13.40;62.60;13.00;102223.00;;;;5021149;28;20418;-72
2021/04/18 09:50:43;;;;;;;13.57;6.18;;;13.60;63.00;13.00;102218.00;;;;4992861;28;20037;-72
2021/04/18 09:53:29;;;;;;;9.63;5.20;;;13.70;62.60;13.10;102221.00;;;;5019082;28;20041;-71
2021/04/18 09:56:03;;;;;;;8.05;5.45;;;13.70;62.20;13.30;102220.00;;;;5016506;28;20303;-72
2021/04/18 09:58:38;;;;;;;12.18;5.93;;;13.90;60.20;13.40;102217.00;;;;4996753;28;20045;-72
2021/04/18 10:01:24;;;;;;;9.00;5.45;;;14.10;61.40;13.50;102217.00;;;;5020666;28;20445;-72
2021/04/18 10:03:50;;;;;;;10.02;6.40;;;14.10;59.90;13.60;102213.00;;;;5017190;28;20561;-70
2021/04/18 10:06:16;;;;;;;11.95;5.95;;;14.10;59.30;13.50;102216.00;;;;5000874;28;20049;-71
2021/04/18 10:08:56;;;;;;;10.30;6.55;;;14.20;62.20;13.70;102221.00;;;;5013002;28;20117;-70
2021/04/18 10:11:23;;;;;;;10.43;4.85;;;14.30;61.40;13.80;102226.00;;;;4982303;28;20140;-71
2021/04/18 10:13:55;;;;;;;14.50;4.30;;;14.40;60.80;13.90;102222.00;;;;5017970;28;20044;-72
2021/04/18 10:16:32;;;;;;;10.23;4.60;;;14.50;59.00;13.90;102221.00;;;;5021588;28;20307;-72
2021/04/18 10:19:18;;;;;;;7.10;3.78;;;14.60;58.60;13.80;102213.00;;;;5018685;28;20053;-70
2021/04/18 10:22:06;;;;;;;8.45;4.65;;;14.50;58.10;13.90;102212.00;;;;5018943;28;20115;-71
2021/04/18 10:24:48;;;;;;;10.15;4.32;;;14.60;56.90;14.00;102214.00;;;;5017095;28;20041;-71
2021/04/18 10:27:31;;;;;;;9.02;4.93;;;14.60;54.80;14.10;102203.00;;;;5016710;28;20543;-72
2021/04/18 10:29:57;;;;;;;9.60;4.95;;;14.70;58.20;14.20;102206.00;;;;5015813;28;20088;-71
2021/04/18 10:32:24;;;;;;;10.23;5.85;;;14.90;56.70;14.30;102207.00;;;;5027180;28;20630;-71
2021/04/18 10:34:52;;;;;;;15.15;5.25;;;14.90;58.30;14.40;102214.00;;;;5016648;28;20072;-71
2021/04/18 10:37:19;;;;;;;12.05;5.72;;;15.00;58.30;14.40;102208.00;;;;5016903;28;20111;-71
2021/04/18 10:39:45;;;;;;;;;;;15.00;58.20;14.40;102201.00;;;;5021825;28;20051;-71
2021/04/18 10:42:11;;;;;;;9.80;4.80;;;15.10;56.70;14.50;102194.00;;;;5017484;28;19922;-71
2021/04/18 10:44:39;;;;;;;8.53;4.10;;;15.20;56.80;14.60;102194.00;;;;5015270;28;20689;-71
2021/04/18 10:47:15;;;;;;;9.65;4.43;;;15.30;56.50;14.70;102202.00;;;;5021068;28;20660;-72
2021/04/18 10:49:41;;;;;;;10.38;6.20;;;15.70;56.80;14.80;102194.00;;;;5018721;28;20079;-71
2021/04/18 10:52:07;;;;;;;9.45;5.15;;;15.50;54.40;14.90;102197.00;;;;5018062;28;20301;-71
2021/04/18 10:54:33;;;;;;;8.68;4.88;;;15.50;53.90;14.90;102189.00;;;;5018209;28;20041;-71
2021/04/18 10:56:59;;;;;;;9.10;4.28;;;15.60;56.70;15.00;102191.00;;;;5014014;28;20127;-71
2021/04/18 10:59:25;;;;;;;6.35;3.92;;;15.60;54.00;15.00;102191.00;;;;5017414;28;20036;-70
2021/04/18 11:01:52;;;;;;;7.30;4.05;;;15.70;55.30;15.00;102185.00;;;;5015655;28;20522;-72
2021/04/18 11:04:19;;;;;;;8.25;4.32;;;15.70;54.60;15.10;102186.00;;;;5022306;28;20076;-71